N837SC EGKA-EGCC
Flight info
| Callsign | N837SC |
|---|---|
| Flight time | N/A |
| Altitude | 25000 |
| Route | DCT GWC DCT PEPIS Q41 SILVA/N0274F240 M605 DTY Y250 AKUPA T420 ELVOS ELVOS1M |
| Aircraft | SF50/L-BDGRSWY/LB2U2 |
Departure
| Time | N/A |
|---|---|
| Airport | Brighton City Airport (EGKA) |
Arrival
| Time | 2026-05-04 20:21 |
|---|---|
| Airport | Manchester Airport (EGCC) |
| Time | Latitude | Longitude | Altitude | Speed | Heading |
|---|---|---|---|---|---|
| 2026-05-04 20:15 | 53.46464 | -2.04587 | 3480 ft | 176 kts | 233° |
| 2026-05-04 20:15 | 53.45674 | -2.06217 | 3289 ft | 180 kts | 233° |
| 2026-05-04 20:16 | 53.44904 | -2.07797 | 3062 ft | 164 kts | 233° |
| 2026-05-04 20:16 | 53.44238 | -2.09191 | 2836 ft | 144 kts | 236° |
| 2026-05-04 20:16 | 53.43632 | -2.10432 | 2664 ft | 130 kts | 234° |
| 2026-05-04 20:16 | 53.43130 | -2.11475 | 2499 ft | 101 kts | 237° |
| 2026-05-04 20:17 | 53.42724 | -2.12307 | 2360 ft | 85 kts | 236° |
| 2026-05-04 20:17 | 53.42384 | -2.13024 | 2209 ft | 75 kts | 240° |
| 2026-05-04 20:17 | 53.41995 | -2.13823 | 2220 ft | 96 kts | 235° |
| 2026-05-04 20:17 | 53.41568 | -2.14713 | 2229 ft | 97 kts | 237° |
| 2026-05-04 20:18 | 53.41089 | -2.15622 | 2036 ft | 111 kts | 231° |
| 2026-05-04 20:18 | 53.40530 | -2.16613 | 1843 ft | 122 kts | 234° |
| 2026-05-04 20:18 | 53.40001 | -2.17731 | 1694 ft | 122 kts | 237° |
| 2026-05-04 20:18 | 53.39484 | -2.18853 | 1506 ft | 121 kts | 237° |
| 2026-05-04 20:19 | 53.38966 | -2.19962 | 1271 ft | 122 kts | 236° |
| 2026-05-04 20:19 | 53.38426 | -2.21066 | 1064 ft | 122 kts | 234° |
| 2026-05-04 20:19 | 53.37917 | -2.22170 | 872 ft | 115 kts | 234° |
| 2026-05-04 20:19 | 53.37431 | -2.23179 | 701 ft | 109 kts | 236° |
| 2026-05-04 20:20 | 53.36970 | -2.24174 | 532 ft | 108 kts | 237° |
| 2026-05-04 20:20 | 53.36500 | -2.25137 | 398 ft | 105 kts | 236° |
| 2026-05-04 20:20 | 53.36052 | -2.26080 | 279 ft | 100 kts | 236° |
| 2026-05-04 20:20 | 53.35657 | -2.26898 | 254 ft | 82 kts | 239° |
| 2026-05-04 20:21 | 53.35350 | -2.27563 | 245 ft | 62 kts | 233° |
| 2026-05-04 20:21 | 53.35256 | -2.27869 | 234 ft | 19 kts | 262° |
| 2026-05-04 20:21 | 53.35245 | -2.27983 | 233 ft | 4 kts | 261° |
| 2026-05-04 20:22 | 53.35241 | -2.28025 | 232 ft | 5 kts | 261° |
| 2026-05-04 20:22 | 53.35238 | -2.28055 | 232 ft | 0 kts | 261° |
| 2026-05-04 20:22 | 53.35238 | -2.28057 | 232 ft | 0 kts | 261° |
| 2026-05-04 20:23 | 53.35238 | -2.28064 | 232 ft | 6 kts | 261° |
| 2026-05-04 20:23 | 53.35235 | -2.28198 | 230 ft | 12 kts | 299° |
| 2026-05-04 20:23 | 53.35282 | -2.28216 | 231 ft | 4 kts | 19° |
| 2026-05-04 20:23 | 53.35291 | -2.28212 | 231 ft | 0 kts | 13° |
| 2026-05-04 20:24 | 53.35343 | -2.28193 | 232 ft | 13 kts | 12° |
| 2026-05-04 20:24 | 53.35437 | -2.28159 | 235 ft | 12 kts | 10° |
| 2026-05-04 20:24 | 53.35501 | -2.28142 | 237 ft | 4 kts | 5° |
| 2026-05-04 20:24 | 53.35509 | -2.28140 | 237 ft | 2 kts | 5° |
| 2026-05-04 20:25 | 53.35548 | -2.28136 | 238 ft | 8 kts | 10° |
| 2026-05-04 20:25 | 53.35584 | -2.28127 | 238 ft | 1 kts | 268° |
| 2026-05-04 20:25 | 53.35582 | -2.28130 | 238 ft | 0 kts | 191° |